createdAt,value
2023-02-23T00:00:08.775Z,100291.09
2023-02-23T00:03:11.592Z,100289.44
2023-02-23T00:06:14.430Z,100291.09
2023-02-23T00:09:23.462Z,100292.62
2023-02-23T00:12:27.192Z,100291.94
2023-02-23T00:15:30.136Z,100291.69
2023-02-23T00:18:41.642Z,100285.41
2023-02-23T00:21:45.670Z,100284.19
2023-02-23T00:24:50.382Z,100286.06
2023-02-23T00:27:53.284Z,100286.53
2023-02-23T00:30:56.099Z,100281.75
2023-02-23T00:34:00.981Z,100287.09
2023-02-23T00:37:03.672Z,100290.22
2023-02-23T00:40:14.814Z,100287.03
2023-02-23T00:43:19.107Z,100289.62
2023-02-23T00:46:23.910Z,100293.38
2023-02-23T00:49:27.060Z,100287.56
2023-02-23T00:52:30.198Z,100288.19
2023-02-23T00:55:32.875Z,100290.97
2023-02-23T00:58:35.707Z,100295.13
2023-02-23T01:01:39.202Z,100297.00
2023-02-23T01:04:42.131Z,100293.59
2023-02-23T01:07:47.564Z,100283.34
2023-02-23T01:10:53.759Z,100291.09
2023-02-23T01:13:58.275Z,100295.88
2023-02-23T01:17:00.950Z,100294.28
2023-02-23T01:20:13.387Z,100280.78
2023-02-23T01:23:16.864Z,100287.97
2023-02-23T01:26:30.632Z,100284.69
2023-02-23T01:29:33.438Z,100289.41
2023-02-23T01:32:37.970Z,100285.00
2023-02-23T01:35:40.745Z,100285.13
2023-02-23T01:38:43.536Z,100278.09
2023-02-23T01:41:46.341Z,100282.66
2023-02-23T01:44:50.619Z,100279.47
2023-02-23T01:47:56.866Z,100281.37
2023-02-23T01:51:12.030Z,100277.75
2023-02-23T01:54:18.942Z,100278.84
2023-02-23T01:57:25.209Z,100273.81
2023-02-23T02:00:28.552Z,100271.31
2023-02-23T02:03:46.387Z,100274.81
2023-02-23T02:06:53.791Z,100273.34
2023-02-23T02:10:13.086Z,100272.69
2023-02-23T02:13:20.865Z,100272.22
2023-02-23T02:16:42.773Z,100266.44
2023-02-23T02:19:51.648Z,100272.59
2023-02-23T02:23:31.557Z,100264.72
2023-02-23T02:26:46.459Z,100253.28
2023-02-23T02:30:17.052Z,100266.31
2023-02-23T02:33:44.125Z,100262.84
2023-02-23T02:37:05.121Z,100263.53
2023-02-23T02:40:17.667Z,100255.53
2023-02-23T02:43:27.873Z,100267.75
2023-02-23T02:46:38.824Z,100256.28
2023-02-23T02:49:46.306Z,100257.50
2023-02-23T02:52:56.531Z,100262.06
2023-02-23T02:56:00.628Z,100260.34
2023-02-23T02:59:03.786Z,100262.12
2023-02-23T03:02:25.909Z,100259.88
2023-02-23T03:05:57.805Z,100265.13
2023-02-23T03:09:30.829Z,100257.78
2023-02-23T03:13:37.231Z,100260.25
2023-02-23T03:17:29.353Z,100259.72
2023-02-23T03:20:53.655Z,100267.28
2023-02-23T03:24:36.516Z,100264.16
2023-02-23T03:27:57.682Z,100264.66
2023-02-23T03:31:44.432Z,100267.97
2023-02-23T03:35:12.669Z,100267.97
2023-02-23T03:39:03.218Z,100271.56
2023-02-23T03:42:30.428Z,100272.75
2023-02-23T03:45:52.192Z,100266.84
2023-02-23T03:49:16.339Z,100271.78
2023-02-23T03:52:41.089Z,100268.47
2023-02-23T03:56:06.368Z,100270.59
2023-02-23T03:59:28.577Z,100274.03
2023-02-23T04:02:50.781Z,100278.00
2023-02-23T04:06:13.316Z,100282.25
2023-02-23T04:09:34.988Z,100279.03
2023-02-23T04:13:03.321Z,100281.37
2023-02-23T04:16:08.672Z,100276.41
2023-02-23T04:19:12.289Z,100282.47
2023-02-23T04:22:15.180Z,100279.50
2023-02-23T04:25:19.490Z,100283.03
2023-02-23T04:28:23.556Z,100278.63
2023-02-23T04:31:26.679Z,100279.12
2023-02-23T04:34:29.757Z,100272.25
2023-02-23T04:37:32.894Z,100284.37
2023-02-23T04:40:35.892Z,100277.78
2023-02-23T04:43:38.664Z,100284.37
2023-02-23T04:46:41.310Z,100277.31
2023-02-23T04:49:44.569Z,100287.47
2023-02-23T04:52:47.848Z,100292.00
2023-02-23T04:55:50.574Z,100289.53
2023-02-23T04:58:53.723Z,100295.59
2023-02-23T05:01:56.736Z,100297.41
2023-02-23T05:04:59.434Z,100290.81
2023-02-23T05:08:02.078Z,100286.69
2023-02-23T05:11:06.664Z,100291.94
2023-02-23T05:14:12.757Z,100293.88
2023-02-23T05:17:15.601Z,100295.69
2023-02-23T05:20:18.428Z,100292.53
2023-02-23T05:23:22.218Z,100305.50
2023-02-23T05:26:25.020Z,100304.81
2023-02-23T05:29:27.780Z,100306.31
2023-02-23T05:32:30.618Z,100307.16
2023-02-23T05:35:33.533Z,100296.66
2023-02-23T05:38:36.487Z,100307.00
2023-02-23T05:41:39.279Z,100306.31
2023-02-23T05:44:41.991Z,100311.41
2023-02-23T05:47:44.920Z,100313.06
2023-02-23T05:50:47.647Z,100313.88
2023-02-23T05:53:50.403Z,100307.81
2023-02-23T05:56:53.087Z,100319.81
2023-02-23T05:59:56.069Z,100318.97
2023-02-23T06:02:58.945Z,100325.88
2023-02-23T06:06:01.677Z,100318.00
2023-02-23T06:09:04.991Z,100327.38
2023-02-23T06:12:07.765Z,100327.75
2023-02-23T06:15:11.077Z,100329.41
2023-02-23T06:18:13.840Z,100330.09
2023-02-23T06:21:16.668Z,100337.81
2023-02-23T06:24:19.980Z,100340.97
2023-02-23T06:27:22.863Z,100345.75
2023-02-23T06:30:25.863Z,100353.31
2023-02-23T06:33:28.695Z,100360.06
2023-02-23T06:36:31.393Z,100366.50
2023-02-23T06:39:34.164Z,100365.87
2023-02-23T06:42:36.985Z,100357.88
2023-02-23T06:45:39.853Z,100368.87
2023-02-23T06:48:42.820Z,100365.13
2023-02-23T06:51:45.777Z,100372.41
2023-02-23T06:54:50.219Z,100373.63
2023-02-23T06:57:53.664Z,100370.38
2023-02-23T07:00:59.748Z,100379.44
2023-02-23T07:04:02.528Z,100380.63
2023-02-23T07:07:05.693Z,100385.72
2023-02-23T07:10:09.484Z,100381.97
2023-02-23T07:13:15.224Z,100381.00
2023-02-23T07:16:18.127Z,100384.59
2023-02-23T07:19:20.845Z,100383.78
2023-02-23T07:22:25.528Z,100383.91
2023-02-23T07:25:28.795Z,100381.44
2023-02-23T07:28:31.573Z,100384.06
2023-02-23T07:31:34.363Z,100386.84
2023-02-23T07:34:38.046Z,100390.47
2023-02-23T07:37:40.759Z,100394.72
2023-02-23T07:40:43.426Z,100391.12
2023-02-23T07:43:46.174Z,100395.09
2023-02-23T07:46:49.731Z,100393.00
2023-02-23T07:49:52.466Z,100388.91
2023-02-23T07:52:55.229Z,100389.28
2023-02-23T07:55:58.359Z,100391.59
2023-02-23T07:59:01.122Z,100397.22
2023-02-23T08:02:03.830Z,100400.22
2023-02-23T08:05:07.135Z,100398.62
2023-02-23T08:08:09.847Z,100398.31
2023-02-23T08:11:12.645Z,100399.34
2023-02-23T08:14:15.496Z,100406.69
2023-02-23T08:17:20.253Z,100406.37
2023-02-23T08:20:23.359Z,100406.22
2023-02-23T08:23:26.192Z,100412.00
2023-02-23T08:26:29.059Z,100413.81
2023-02-23T08:29:32.094Z,100412.34
2023-02-23T08:32:35.525Z,100414.19
2023-02-23T08:35:38.488Z,100415.06
2023-02-23T08:38:41.416Z,100416.25
2023-02-23T08:41:45.092Z,100412.03
2023-02-23T08:44:49.534Z,100414.84
2023-02-23T08:47:52.265Z,100425.09
2023-02-23T08:50:58.677Z,100420.00
2023-02-23T08:54:02.059Z,100417.13
2023-02-23T08:57:05.110Z,100426.28
2023-02-23T09:00:14.468Z,100431.72
2023-02-23T09:03:19.804Z,100424.88
2023-02-23T09:06:25.695Z,100430.31
2023-02-23T09:09:28.508Z,100421.25
2023-02-23T09:12:31.445Z,100429.16
2023-02-23T09:15:34.578Z,100423.59
2023-02-23T09:18:37.716Z,100429.66
2023-02-23T09:21:40.568Z,100431.16
2023-02-23T09:24:43.336Z,100429.34
2023-02-23T09:27:55.886Z,100433.28
2023-02-23T09:31:06.674Z,100432.66
2023-02-23T09:34:10.491Z,100429.69
2023-02-23T09:37:13.261Z,100435.75
2023-02-23T09:40:19.536Z,100432.47
2023-02-23T09:43:34.350Z,100436.09
2023-02-23T09:46:49.312Z,100431.38
2023-02-23T09:49:52.381Z,100431.03
2023-02-23T09:53:04.539Z,100439.59
2023-02-23T09:56:17.318Z,100436.63
2023-02-23T09:59:21.525Z,100439.28
2023-02-23T10:02:39.903Z,100442.22
2023-02-23T10:05:48.064Z,100438.78
2023-02-23T10:09:04.199Z,100435.47
2023-02-23T10:12:10.948Z,100431.38
2023-02-23T10:15:35.567Z,100437.94
2023-02-23T10:18:55.066Z,100430.22
2023-02-23T10:22:02.747Z,100422.97
2023-02-23T10:25:11.768Z,100428.06
2023-02-23T10:28:21.752Z,100423.47
2023-02-23T10:31:31.706Z,100418.03
2023-02-23T10:34:35.824Z,100420.84
2023-02-23T10:37:38.492Z,100421.31
2023-02-23T10:40:41.935Z,100423.31
2023-02-23T10:43:44.750Z,100416.22
2023-02-23T10:46:54.201Z,100407.97
2023-02-23T10:49:58.815Z,100416.03
2023-02-23T10:53:17.825Z,100410.94
2023-02-23T10:56:22.363Z,100414.06
2023-02-23T10:59:25.269Z,100411.44
2023-02-23T11:02:31.734Z,100412.91
2023-02-23T11:05:44.234Z,100400.00
2023-02-23T11:08:46.982Z,100404.44
2023-02-23T11:11:58.311Z,100403.94
2023-02-23T11:15:48.113Z,100392.97
2023-02-23T11:19:03.125Z,100386.13
2023-02-23T11:22:06.942Z,100392.16
2023-02-23T11:25:32.268Z,100388.97
2023-02-23T11:28:37.410Z,100376.41
2023-02-23T11:31:47.625Z,100383.25
2023-02-23T11:35:29.596Z,100376.94
2023-02-23T11:38:34.610Z,100374.75
2023-02-23T11:41:37.609Z,100377.47
2023-02-23T11:44:40.335Z,100378.75
2023-02-23T11:47:49.534Z,100374.94
2023-02-23T11:50:53.406Z,100375.53
2023-02-23T11:53:56.633Z,100369.63
2023-02-23T11:57:02.792Z,100359.47
2023-02-23T12:00:20.858Z,100364.12
2023-02-23T12:03:26.350Z,100358.94
2023-02-23T12:06:35.360Z,100355.50
2023-02-23T12:09:39.125Z,100357.12
2023-02-23T12:13:04.714Z,100354.31
2023-02-23T12:16:18.150Z,100354.47
2023-02-23T12:19:32.105Z,100344.72
2023-02-23T12:22:40.238Z,100335.22
2023-02-23T12:25:54.462Z,100328.75
2023-02-23T12:29:02.750Z,100328.34
2023-02-23T12:35:45.865Z,100326.66
2023-02-23T12:39:05.486Z,100314.56
2023-02-23T12:42:17.233Z,100320.28
2023-02-23T12:45:38.123Z,100317.56
2023-02-23T12:48:52.793Z,100306.59
2023-02-23T12:52:02.420Z,100299.28
2023-02-23T12:55:11.192Z,100295.53
2023-02-23T12:58:35.367Z,100293.28
2023-02-23T13:02:16.759Z,100291.00
2023-02-23T13:09:18.772Z,100287.56
2023-02-23T13:13:06.832Z,100284.97
2023-02-23T13:16:23.131Z,100283.41
2023-02-23T13:19:59.033Z,100288.37
2023-02-23T13:23:11.040Z,100273.78
2023-02-23T13:26:21.005Z,100274.63
2023-02-23T13:29:31.901Z,100275.16
2023-02-23T13:32:38.994Z,100269.03
2023-02-23T13:35:43.233Z,100282.31
2023-02-23T13:39:42.320Z,100277.37
2023-02-23T13:43:01.503Z,100249.75
2023-02-23T13:46:25.682Z,100278.81
2023-02-23T13:49:42.371Z,100278.31
2023-02-23T13:52:46.059Z,100269.66
2023-02-23T13:55:51.953Z,100263.91
2023-02-23T13:59:00.800Z,100263.97
2023-02-23T14:02:18.506Z,100260.59
2023-02-23T14:05:31.905Z,100266.38
2023-02-23T14:08:37.442Z,100257.50
2023-02-23T14:12:03.434Z,100267.22
2023-02-23T14:15:28.361Z,100256.25
2023-02-23T14:18:33.509Z,100265.97
2023-02-23T14:21:43.595Z,100263.31
2023-02-23T14:24:46.799Z,100258.03
2023-02-23T14:28:00.803Z,100253.09
2023-02-23T14:31:21.259Z,100259.59
2023-02-23T14:34:45.789Z,100266.47
2023-02-23T14:37:57.086Z,100261.59
2023-02-23T14:41:02.674Z,100254.78
2023-02-23T14:44:31.601Z,100252.56
2023-02-23T14:47:43.147Z,100256.84
2023-02-23T14:50:47.438Z,100247.25
2023-02-23T14:53:55.370Z,100253.31
2023-02-23T14:57:00.721Z,100245.91
2023-02-23T15:00:13.330Z,100248.56
2023-02-23T15:03:16.256Z,100250.31
2023-02-23T15:06:25.041Z,100245.91
2023-02-23T15:09:43.948Z,100254.97
2023-02-23T15:12:47.937Z,100251.44
2023-02-23T15:15:50.804Z,100251.09
2023-02-23T15:18:53.912Z,100254.78
2023-02-23T15:21:57.786Z,100246.41
2023-02-23T15:25:02.819Z,100245.53
2023-02-23T15:28:22.836Z,100249.91
2023-02-23T15:31:30.489Z,100254.28
2023-02-23T15:34:33.406Z,100241.63
2023-02-23T15:37:45.382Z,100247.66
2023-02-23T15:40:51.701Z,100243.72
2023-02-23T15:43:56.383Z,100239.78
2023-02-23T15:47:01.837Z,100241.88
2023-02-23T15:50:09.530Z,100247.25
2023-02-23T15:53:24.910Z,100246.91
2023-02-23T15:56:30.133Z,100246.22
2023-02-23T15:59:37.905Z,100243.28
2023-02-23T16:02:41.486Z,100244.56
2023-02-23T16:06:05.046Z,100249.44
2023-02-23T16:09:21.400Z,100244.13
2023-02-23T16:12:29.458Z,100251.97
2023-02-23T16:15:37.793Z,100254.50
2023-02-23T16:18:42.097Z,100262.66
2023-02-23T16:21:54.035Z,100243.59
2023-02-23T16:25:00.924Z,100249.34
2023-02-23T16:28:13.861Z,100244.13
2023-02-23T16:31:25.983Z,100258.19
2023-02-23T16:34:37.408Z,100245.84
2023-02-23T16:38:23.175Z,100252.16
2023-02-23T16:41:28.123Z,100251.69
2023-02-23T16:44:42.974Z,100254.34
2023-02-23T16:47:50.345Z,100259.31
2023-02-23T16:50:53.429Z,100256.84
2023-02-23T16:53:57.245Z,100260.31
2023-02-23T16:57:00.250Z,100261.94
2023-02-23T17:00:14.718Z,100257.03
2023-02-23T17:03:26.061Z,100261.28
2023-02-23T17:06:29.159Z,100265.09
2023-02-23T17:09:34.743Z,100265.91
2023-02-23T17:12:39.424Z,100266.09
2023-02-23T17:15:54.225Z,100259.03
2023-02-23T17:19:00.047Z,100263.47
2023-02-23T17:22:05.526Z,100257.56
2023-02-23T17:25:09.109Z,100253.63
2023-02-23T17:28:12.004Z,100261.84
2023-02-23T17:31:16.794Z,100267.13
2023-02-23T17:34:20.008Z,100260.72
2023-02-23T17:37:23.034Z,100259.88
2023-02-23T17:40:31.377Z,100261.19
2023-02-23T17:43:35.474Z,100259.06
2023-02-23T17:46:38.824Z,100254.63
2023-02-23T17:49:41.991Z,100253.97
2023-02-23T17:52:45.882Z,100261.53
2023-02-23T17:55:51.355Z,100249.69
2023-02-23T17:58:56.321Z,100252.31
2023-02-23T18:01:59.393Z,100245.56
2023-02-23T18:05:02.448Z,100245.06
2023-02-23T18:08:06.393Z,100245.41
2023-02-23T18:11:09.528Z,100245.41
2023-02-23T18:14:14.649Z,100244.91
2023-02-23T18:17:17.579Z,100242.47
2023-02-23T18:20:21.888Z,100237.53
2023-02-23T18:23:29.879Z,100235.22
2023-02-23T18:26:32.910Z,100235.56
2023-02-23T18:29:36.524Z,100238.19
2023-02-23T18:32:39.830Z,100238.19
2023-02-23T18:35:45.723Z,100227.00
2023-02-23T18:38:49.343Z,100229.97
2023-02-23T18:41:52.600Z,100231.62
2023-02-23T18:44:55.804Z,100225.69
2023-02-23T18:47:58.874Z,100228.34
2023-02-23T18:51:05.095Z,100226.84
2023-02-23T18:54:16.903Z,100232.94
2023-02-23T18:57:19.910Z,100229.31
2023-02-23T19:00:23.342Z,100221.44
2023-02-23T19:03:26.447Z,100225.38
2023-02-23T19:06:29.884Z,100226.03
2023-02-23T19:09:33.084Z,100225.38
2023-02-23T19:12:36.310Z,100227.84
2023-02-23T19:15:39.852Z,100221.09
2023-02-23T19:18:42.753Z,100228.19
2023-02-23T19:21:45.921Z,100226.53
2023-02-23T19:24:49.266Z,100229.16
2023-02-23T19:27:52.526Z,100225.22
2023-02-23T19:31:10.524Z,100221.13
2023-02-23T19:34:15.367Z,100223.91
2023-02-23T19:37:18.463Z,100221.75
2023-02-23T19:40:24.051Z,100225.19
2023-02-23T19:43:27.818Z,100217.81
2023-02-23T19:46:31.208Z,100229.31
2023-02-23T19:49:34.304Z,100231.13
2023-02-23T19:52:39.178Z,100230.78
2023-02-23T19:55:42.417Z,100219.94
2023-02-23T19:58:46.916Z,100218.44
2023-02-23T20:01:51.743Z,100217.44
2023-02-23T20:04:54.928Z,100210.88
2023-02-23T20:07:58.154Z,100214.81
2023-02-23T20:11:01.264Z,100218.94
2023-02-23T20:14:05.283Z,100210.53
2023-02-23T20:17:09.353Z,100200.69
2023-02-23T20:20:12.899Z,100205.47
2023-02-23T20:23:16.573Z,100201.03
2023-02-23T20:26:30.994Z,100201.69
2023-02-23T20:29:34.493Z,100203.84
2023-02-23T20:32:37.689Z,100207.44
2023-02-23T20:35:41.446Z,100203.00
2023-02-23T20:38:44.549Z,100198.56
2023-02-23T20:41:48.097Z,100191.50
2023-02-23T20:44:51.151Z,100186.25
2023-02-23T20:47:54.258Z,100181.47
2023-02-23T20:50:57.874Z,100187.22
2023-02-23T20:54:00.762Z,100184.75
2023-02-23T20:57:08.010Z,100180.31
2023-02-23T21:00:12.343Z,100175.41
2023-02-23T21:03:16.418Z,100173.75
2023-02-23T21:06:20.771Z,100172.09
2023-02-23T21:09:23.704Z,100174.09
2023-02-23T21:12:27.990Z,100164.72
2023-02-23T21:15:33.013Z,100169.97
2023-02-23T21:18:39.402Z,100167.47
2023-02-23T21:21:45.084Z,100163.38
2023-02-23T21:24:48.341Z,100164.53
2023-02-23T21:27:52.019Z,100156.47
2023-02-23T21:30:55.453Z,100150.72
2023-02-23T21:33:58.515Z,100142.84
2023-02-23T21:37:01.792Z,100144.81
2023-02-23T21:40:08.469Z,100146.28
2023-02-23T21:43:13.150Z,100141.19
2023-02-23T21:46:17.158Z,100138.56
2023-02-23T21:49:21.591Z,100141.84
2023-02-23T21:52:24.249Z,100134.12
2023-02-23T21:55:26.920Z,100135.44
2023-02-23T21:58:29.858Z,100140.22
2023-02-23T22:01:35.505Z,100132.81
2023-02-23T22:04:39.233Z,100132.81
2023-02-23T22:07:42.413Z,100128.53
2023-02-23T22:10:46.567Z,100128.72
2023-02-23T22:13:54.618Z,100129.53
2023-02-23T22:16:57.851Z,100128.72
2023-02-23T22:20:00.547Z,100128.72
2023-02-23T22:23:03.657Z,100124.09
2023-02-23T22:26:06.655Z,100117.69
2023-02-23T22:29:10.630Z,100121.16
2023-02-23T22:32:13.565Z,100113.75
2023-02-23T22:35:16.623Z,100106.84
2023-02-23T22:38:19.585Z,100100.25
2023-02-23T22:41:22.719Z,100102.72
2023-02-23T22:44:25.687Z,100098.63
2023-02-23T22:47:28.498Z,100100.44
2023-02-23T22:50:31.648Z,100081.84
2023-02-23T22:53:34.463Z,100090.25
2023-02-23T22:56:37.218Z,100078.41
2023-02-23T22:59:40.033Z,100080.03
2023-02-23T23:02:43.237Z,100082.84
2023-02-23T23:05:51.260Z,100071.84
2023-02-23T23:08:56.311Z,100075.13
2023-02-23T23:11:59.361Z,100073.31
2023-02-23T23:15:07.400Z,100069.06
2023-02-23T23:18:14.612Z,100067.91
2023-02-23T23:21:22.154Z,100068.25
2023-02-23T23:24:25.653Z,100066.59
2023-02-23T23:27:33.446Z,100069.56
2023-02-23T23:30:37.489Z,100068.09
2023-02-23T23:33:47.822Z,100062.00
2023-02-23T23:36:50.553Z,100058.06
2023-02-23T23:39:59.506Z,100051.66
2023-02-23T23:43:02.256Z,100050.81
2023-02-23T23:46:06.242Z,100040.63
2023-02-23T23:49:16.111Z,100034.06
2023-02-23T23:52:18.813Z,100035.06
2023-02-23T23:55:22.544Z,100025.06
2023-02-23T23:58:26.979Z,100026.22
